createdAt,value
2019-01-30T00:00:48.674Z,98361.80
2019-01-30T00:03:14.830Z,98360.66
2019-01-30T00:05:41.018Z,98364.91
2019-01-30T00:08:07.587Z,98372.09
2019-01-30T00:10:33.839Z,98379.16
2019-01-30T00:13:00.037Z,98373.45
2019-01-30T00:15:26.305Z,98364.09
2019-01-30T00:17:52.563Z,98366.19
2019-01-30T00:20:18.759Z,98356.95
2019-01-30T00:22:45.032Z,98368.27
2019-01-30T00:25:12.490Z,98371.78
2019-01-30T00:27:38.682Z,98360.03
2019-01-30T00:30:19.561Z,98376.22
2019-01-30T00:32:45.763Z,98364.61
2019-01-30T00:35:11.922Z,98361.27
2019-01-30T00:37:38.095Z,98359.83
2019-01-30T00:40:07.691Z,98359.19
2019-01-30T00:42:33.860Z,98353.66
2019-01-30T00:45:00.023Z,98355.39
2019-01-30T00:47:26.223Z,98352.61
2019-01-30T00:49:52.484Z,98352.82
2019-01-30T00:52:18.741Z,98360.53
2019-01-30T00:54:45.030Z,98347.89
2019-01-30T00:57:11.187Z,98349.25
2019-01-30T00:59:37.350Z,98349.54
2019-01-30T01:02:03.546Z,98353.94
2019-01-30T01:04:29.715Z,98345.30
2019-01-30T01:06:55.976Z,98348.23
2019-01-30T01:09:22.173Z,98345.95
2019-01-30T01:11:48.328Z,98335.97
2019-01-30T01:14:14.707Z,98331.37
2019-01-30T01:16:40.893Z,98327.44
2019-01-30T01:19:07.144Z,98312.88
2019-01-30T01:21:33.299Z,98315.14
2019-01-30T01:23:59.497Z,98314.98
2019-01-30T01:26:25.750Z,98313.89
2019-01-30T01:28:51.908Z,98305.50
2019-01-30T01:31:18.112Z,98305.30
2019-01-30T01:33:44.372Z,98305.90
2019-01-30T01:36:10.532Z,98290.63
2019-01-30T01:38:36.821Z,98286.42
2019-01-30T01:41:03.075Z,98269.72
2019-01-30T01:43:29.282Z,98278.84
2019-01-30T01:45:55.471Z,98277.06
2019-01-30T01:48:21.626Z,98278.27
2019-01-30T01:50:47.888Z,98277.38
2019-01-30T01:53:14.086Z,98284.32
2019-01-30T01:55:40.243Z,98278.94
2019-01-30T01:58:06.413Z,98272.38
2019-01-30T02:00:35.627Z,98277.59
2019-01-30T02:03:00.881Z,98270.09
2019-01-30T02:05:27.134Z,98279.60
2019-01-30T02:07:53.320Z,98274.80
2019-01-30T02:10:23.744Z,98262.72
2019-01-30T02:12:50.218Z,98253.48
2019-01-30T02:15:18.226Z,98255.69
2019-01-30T02:17:44.481Z,98259.72
2019-01-30T02:20:32.223Z,98273.05
2019-01-30T02:22:58.388Z,98271.41
2019-01-30T02:25:26.355Z,98274.95
2019-01-30T02:27:52.665Z,98282.45
2019-01-30T02:30:21.127Z,98268.14
2019-01-30T02:32:47.284Z,98263.71
2019-01-30T02:35:13.472Z,98264.73
2019-01-30T02:37:39.733Z,98262.35
2019-01-30T02:40:08.788Z,98268.24
2019-01-30T02:42:35.073Z,98272.92
2019-01-30T02:45:01.299Z,98281.15
2019-01-30T02:47:27.443Z,98280.86
2019-01-30T02:49:53.763Z,98264.45
2019-01-30T02:52:19.926Z,98269.12
2019-01-30T02:54:46.070Z,98260.33
2019-01-30T02:57:12.374Z,98250.82
2019-01-30T02:59:38.518Z,98257.19
2019-01-30T03:02:09.335Z,98262.12
2019-01-30T03:04:35.621Z,98254.41
2019-01-30T03:07:01.781Z,98263.40
2019-01-30T03:09:28.046Z,98258.38
2019-01-30T03:11:54.351Z,98258.27
2019-01-30T03:14:20.622Z,98258.80
2019-01-30T03:16:47.012Z,98260.98
2019-01-30T03:19:13.305Z,98264.39
2019-01-30T03:21:39.567Z,98266.11
2019-01-30T03:24:05.720Z,98268.28
2019-01-30T03:26:32.003Z,98262.15
2019-01-30T03:28:58.172Z,98268.88
2019-01-30T03:31:24.345Z,98265.78
2019-01-30T03:33:50.660Z,98260.81
2019-01-30T03:36:16.813Z,98259.22
2019-01-30T03:38:43.085Z,98263.56
2019-01-30T03:41:09.367Z,98255.00
2019-01-30T03:43:35.572Z,98261.60
2019-01-30T03:46:01.877Z,98253.13
2019-01-30T03:48:28.073Z,98259.77
2019-01-30T03:50:54.329Z,98255.37
2019-01-30T03:53:20.484Z,98253.54
2019-01-30T03:55:46.691Z,98247.77
2019-01-30T03:58:12.854Z,98246.69
2019-01-30T04:00:39.018Z,98240.53
2019-01-30T04:03:05.308Z,98236.64
2019-01-30T04:05:31.483Z,98240.72
2019-01-30T04:07:57.657Z,98234.02
2019-01-30T04:10:23.944Z,98242.78
2019-01-30T04:12:50.525Z,98244.16
2019-01-30T04:15:16.992Z,98250.08
2019-01-30T04:17:43.188Z,98242.05
2019-01-30T04:20:12.556Z,98249.27
2019-01-30T04:22:38.831Z,98237.62
2019-01-30T04:25:06.740Z,98240.92
2019-01-30T04:27:32.907Z,98240.50
2019-01-30T04:29:59.166Z,98239.45
2019-01-30T04:32:25.353Z,98237.56
2019-01-30T04:34:51.510Z,98237.38
2019-01-30T04:37:17.675Z,98222.83
2019-01-30T04:39:44.018Z,98234.25
2019-01-30T04:42:10.184Z,98229.73
2019-01-30T04:44:36.358Z,98217.13
2019-01-30T04:47:03.659Z,98216.33
2019-01-30T04:49:29.829Z,98223.22
2019-01-30T04:51:56.000Z,98220.09
2019-01-30T04:54:22.212Z,98215.78
2019-01-30T04:56:48.371Z,98212.63
2019-01-30T04:59:14.627Z,98217.14
2019-01-30T05:01:49.395Z,98212.36
2019-01-30T05:04:08.896Z,98224.47
2019-01-30T05:06:35.164Z,98224.09
2019-01-30T05:09:01.461Z,98225.97
2019-01-30T05:11:32.095Z,98218.94
2019-01-30T05:13:58.255Z,98223.89
2019-01-30T05:16:24.448Z,98222.00
2019-01-30T05:18:50.713Z,98211.27
2019-01-30T05:21:16.898Z,98205.72
2019-01-30T05:23:43.092Z,98208.80
2019-01-30T05:26:09.256Z,98210.59
2019-01-30T05:28:35.417Z,98209.86
2019-01-30T05:31:01.604Z,98206.09
2019-01-30T05:33:27.862Z,98212.87
2019-01-30T05:35:54.016Z,98205.67
2019-01-30T05:38:20.306Z,98201.24
2019-01-30T05:40:46.577Z,98201.29
2019-01-30T05:43:12.728Z,98200.77
2019-01-30T05:45:38.928Z,98204.47
2019-01-30T05:48:06.035Z,98209.73
2019-01-30T05:50:32.303Z,98199.34
2019-01-30T05:52:58.489Z,98199.17
2019-01-30T05:55:24.655Z,98202.42
2019-01-30T05:57:50.909Z,98206.86
2019-01-30T06:00:24.974Z,98207.18
2019-01-30T06:02:51.238Z,98207.94
2019-01-30T06:05:17.392Z,98202.49
2019-01-30T06:07:43.597Z,98203.67
2019-01-30T06:10:10.481Z,98199.31
2019-01-30T06:12:36.630Z,98208.84
2019-01-30T06:15:06.541Z,98208.47
2019-01-30T06:17:32.801Z,98202.86
2019-01-30T06:19:58.963Z,98198.88
2019-01-30T06:22:25.157Z,98196.50
2019-01-30T06:24:51.318Z,98185.98
2019-01-30T06:27:17.476Z,98204.85
2019-01-30T06:29:43.770Z,98189.38
2019-01-30T06:32:09.928Z,98204.31
2019-01-30T06:34:36.201Z,98203.59
2019-01-30T06:37:02.591Z,98196.98
2019-01-30T06:39:28.751Z,98194.34
2019-01-30T06:41:54.922Z,98199.34
2019-01-30T06:44:21.224Z,98193.77
2019-01-30T06:46:47.387Z,98192.01
2019-01-30T06:49:13.702Z,98192.00
2019-01-30T06:51:39.908Z,98196.01
2019-01-30T06:54:06.069Z,98183.31
2019-01-30T06:56:32.332Z,98188.40
2019-01-30T06:58:58.517Z,98187.61
2019-01-30T07:01:24.676Z,98190.03
2019-01-30T07:03:50.832Z,98190.23
2019-01-30T07:06:17.124Z,98202.25
2019-01-30T07:08:43.392Z,98188.63
2019-01-30T07:11:10.777Z,98186.60
2019-01-30T07:13:37.461Z,98195.22
2019-01-30T07:18:29.962Z,98200.39
2019-01-30T07:20:56.156Z,98198.59
2019-01-30T07:23:22.320Z,98198.07
2019-01-30T07:25:48.483Z,98199.57
2019-01-30T07:28:14.691Z,98205.05
2019-01-30T07:30:40.946Z,98205.29
2019-01-30T07:33:07.108Z,98198.42
2019-01-30T07:35:33.333Z,98188.30
2019-01-30T07:37:59.664Z,98179.13
2019-01-30T07:40:25.829Z,98179.45
2019-01-30T07:42:52.133Z,98173.38
2019-01-30T07:45:23.388Z,98170.66
2019-01-30T07:47:49.557Z,98173.17
2019-01-30T07:50:15.984Z,98175.32
2019-01-30T07:52:42.555Z,98164.81
2019-01-30T07:55:11.829Z,98155.03
2019-01-30T07:57:38.135Z,98153.55
2019-01-30T08:00:13.826Z,98156.44
2019-01-30T08:02:40.111Z,98158.75
2019-01-30T08:05:08.191Z,98158.64
2019-01-30T08:07:34.358Z,98157.37
2019-01-30T08:10:00.657Z,98165.30
2019-01-30T08:12:26.817Z,98154.97
2019-01-30T08:14:52.997Z,98161.61
2019-01-30T08:17:21.024Z,98152.83
2019-01-30T08:19:47.257Z,98155.74
2019-01-30T08:22:13.455Z,98165.08
2019-01-30T08:24:40.007Z,98169.14
2019-01-30T08:27:06.420Z,98172.45
2019-01-30T08:29:33.502Z,98168.16
2019-01-30T08:31:59.931Z,98167.50
2019-01-30T08:34:26.276Z,98169.98
2019-01-30T08:36:52.449Z,98174.13
2019-01-30T08:39:18.679Z,98181.36
2019-01-30T08:41:45.035Z,98182.99
2019-01-30T08:44:11.211Z,98172.38
2019-01-30T08:46:37.424Z,98176.55
2019-01-30T08:49:03.701Z,98175.06
2019-01-30T08:51:29.948Z,98179.99
2019-01-30T08:53:56.156Z,98181.95
2019-01-30T08:56:22.423Z,98187.11
2019-01-30T08:58:48.689Z,98192.52
2019-01-30T09:01:14.893Z,98188.56
2019-01-30T09:03:41.169Z,98189.81
2019-01-30T09:06:07.436Z,98199.22
2019-01-30T09:08:33.634Z,98194.23
2019-01-30T09:10:59.815Z,98200.09
2019-01-30T09:13:26.581Z,98199.86
2019-01-30T09:15:52.883Z,98195.00
2019-01-30T09:18:19.059Z,98195.00
2019-01-30T09:20:45.338Z,98199.23
2019-01-30T09:23:11.940Z,98180.89
2019-01-30T09:25:38.107Z,98177.84
2019-01-30T09:28:04.311Z,98176.36
2019-01-30T09:30:33.213Z,98178.26
2019-01-30T09:32:59.409Z,98185.55
2019-01-30T09:35:25.763Z,98184.69
2019-01-30T09:37:51.964Z,98183.70
2019-01-30T09:40:19.819Z,98185.14
2019-01-30T09:42:46.032Z,98182.97
2019-01-30T09:45:17.255Z,98186.41
2019-01-30T09:47:43.484Z,98184.21
2019-01-30T09:50:13.171Z,98177.95
2019-01-30T09:52:39.426Z,98173.35
2019-01-30T09:55:08.597Z,98174.45
2019-01-30T09:57:34.772Z,98167.30
2019-01-30T10:00:01.396Z,98168.24
2019-01-30T10:02:27.572Z,98160.88
2019-01-30T10:04:53.729Z,98168.77
2019-01-30T10:07:20.073Z,98161.72
2019-01-30T10:09:46.842Z,98161.16
2019-01-30T10:12:13.103Z,98167.48
2019-01-30T10:14:42.110Z,98149.19
2019-01-30T10:17:08.693Z,98157.77
2019-01-30T10:19:34.908Z,98142.08
2019-01-30T10:22:01.096Z,98138.84
2019-01-30T10:24:29.043Z,98150.20
2019-01-30T10:26:58.402Z,98139.78
2019-01-30T10:29:24.602Z,98138.41
2019-01-30T10:31:50.780Z,98126.02
2019-01-30T10:34:17.069Z,98133.72
2019-01-30T10:36:43.376Z,98123.09
2019-01-30T10:39:09.533Z,98130.06
2019-01-30T10:41:37.217Z,98112.86
2019-01-30T10:44:03.511Z,98121.67
2019-01-30T10:46:29.673Z,98129.95
2019-01-30T10:48:55.832Z,98117.52
2019-01-30T10:51:22.023Z,98118.25
2019-01-30T10:53:49.275Z,98113.77
2019-01-30T10:56:16.644Z,98106.33
2019-01-30T10:58:42.963Z,98104.50
2019-01-30T11:01:09.233Z,98101.23
2019-01-30T11:03:35.412Z,98103.31
2019-01-30T11:06:01.617Z,98098.44
2019-01-30T11:08:27.788Z,98105.91
2019-01-30T11:10:53.957Z,98098.62
2019-01-30T11:13:20.318Z,98091.65
2019-01-30T11:15:46.561Z,98083.76
2019-01-30T11:18:14.653Z,98084.02
2019-01-30T11:20:40.877Z,98083.02
2019-01-30T11:23:07.061Z,98083.83
2019-01-30T11:25:36.727Z,98075.13
2019-01-30T11:28:03.016Z,98071.05
2019-01-30T11:30:29.271Z,98072.30
2019-01-30T11:32:55.674Z,98071.58
2019-01-30T11:35:22.022Z,98062.88
2019-01-30T11:37:48.188Z,98070.79
2019-01-30T11:40:19.406Z,98070.35
2019-01-30T11:42:45.729Z,98064.64
2019-01-30T11:45:17.436Z,98062.07
2019-01-30T11:47:43.707Z,98062.19
2019-01-30T11:50:12.795Z,98051.39
2019-01-30T11:52:39.560Z,98062.98
2019-01-30T11:55:08.936Z,98061.96
2019-01-30T11:57:35.150Z,98055.53
2019-01-30T12:00:01.406Z,98048.72
2019-01-30T12:02:27.660Z,98045.95
2019-01-30T12:04:53.961Z,98054.98
2019-01-30T12:07:20.234Z,98058.20
2019-01-30T12:09:46.402Z,98048.72
2019-01-30T12:12:12.595Z,98051.72
2019-01-30T12:14:38.756Z,98046.74
2019-01-30T12:17:05.007Z,98040.36
2019-01-30T12:19:31.217Z,98040.29
2019-01-30T12:21:57.489Z,98038.62
2019-01-30T12:24:23.666Z,98042.77
2019-01-30T12:26:49.868Z,98040.27
2019-01-30T12:29:16.144Z,98031.43
2019-01-30T12:31:42.413Z,98033.34
2019-01-30T12:34:09.815Z,98029.88
2019-01-30T12:36:36.112Z,98036.09
2019-01-30T12:39:07.678Z,98025.82
2019-01-30T12:41:35.724Z,98022.84
2019-01-30T12:44:01.953Z,98025.33
2019-01-30T12:46:28.222Z,98022.24
2019-01-30T12:48:54.638Z,98038.31
2019-01-30T12:51:20.895Z,98030.43
2019-01-30T12:53:47.159Z,98031.30
2019-01-30T12:56:13.498Z,98044.19
2019-01-30T12:58:39.666Z,98043.48
2019-01-30T13:01:05.944Z,98051.63
2019-01-30T13:03:32.247Z,98053.99
2019-01-30T13:05:58.503Z,98043.57
2019-01-30T13:08:24.660Z,98048.47
2019-01-30T13:10:50.850Z,98034.24
2019-01-30T13:13:16.998Z,98032.81
2019-01-30T13:15:43.266Z,98031.30
2019-01-30T13:18:17.903Z,98025.31
2019-01-30T13:20:37.728Z,98040.36
2019-01-30T13:23:04.284Z,98038.51
2019-01-30T13:25:30.979Z,98035.50
2019-01-30T13:27:57.345Z,98031.98
2019-01-30T13:30:29.579Z,98032.93
2019-01-30T13:32:56.079Z,98019.83
2019-01-30T13:35:22.548Z,98019.80
2019-01-30T13:37:48.701Z,98019.57
2019-01-30T13:40:21.200Z,98024.88
2019-01-30T13:42:47.465Z,98022.00
2019-01-30T13:45:13.641Z,98023.11
2019-01-30T13:47:40.286Z,98027.16
2019-01-30T13:50:12.642Z,98028.66
2019-01-30T13:52:38.807Z,98038.00
2019-01-30T13:55:07.443Z,98032.31
2019-01-30T13:57:34.784Z,98026.45
2019-01-30T14:00:00.994Z,98030.66
2019-01-30T14:02:27.279Z,98042.02
2019-01-30T14:04:59.375Z,98035.55
2019-01-30T14:07:21.508Z,98038.88
2019-01-30T14:09:47.819Z,98033.09
2019-01-30T14:12:14.051Z,98039.72
2019-01-30T14:14:40.321Z,98037.02
2019-01-30T14:17:06.629Z,98031.72
2019-01-30T14:19:32.911Z,98038.42
2019-01-30T14:21:59.103Z,98052.38
2019-01-30T14:24:25.310Z,98038.82
2019-01-30T14:26:51.483Z,98048.30
2019-01-30T14:29:17.806Z,98048.15
2019-01-30T14:31:44.113Z,98038.62
2019-01-30T14:34:10.283Z,98038.62
2019-01-30T14:36:36.473Z,98039.52
2019-01-30T14:39:05.836Z,98049.21
2019-01-30T14:41:32.089Z,98047.05
2019-01-30T14:43:58.252Z,98045.51
2019-01-30T14:46:24.464Z,98047.39
2019-01-30T14:48:50.649Z,98044.36
2019-01-30T14:51:16.778Z,98053.81
2019-01-30T14:53:42.992Z,98050.93
2019-01-30T14:56:09.161Z,98052.69
2019-01-30T14:58:35.339Z,98050.44
2019-01-30T15:01:01.541Z,98047.64
2019-01-30T15:03:31.620Z,98042.72
2019-01-30T15:05:57.823Z,98049.13
2019-01-30T15:08:24.015Z,98059.80
2019-01-30T15:10:50.341Z,98062.72
2019-01-30T15:13:16.660Z,98058.95
2019-01-30T15:15:44.268Z,98062.70
2019-01-30T15:18:10.694Z,98065.13
2019-01-30T15:20:36.821Z,98066.13
2019-01-30T15:23:04.629Z,98068.89
2019-01-30T15:25:30.893Z,98057.16
2019-01-30T15:27:57.059Z,98063.94
2019-01-30T15:30:32.269Z,98067.86
2019-01-30T15:32:58.443Z,98060.28
2019-01-30T15:35:33.270Z,98054.89
2019-01-30T15:37:52.809Z,98056.84
2019-01-30T15:40:24.604Z,98050.70
2019-01-30T15:42:50.771Z,98050.77
2019-01-30T15:45:19.383Z,98064.16
2019-01-30T15:47:45.543Z,98054.94
2019-01-30T15:50:14.715Z,98058.56
2019-01-30T15:52:40.918Z,98055.60
2019-01-30T15:55:09.781Z,98054.52
2019-01-30T15:57:35.939Z,98051.05
2019-01-30T16:00:05.902Z,98052.15
2019-01-30T16:02:32.177Z,98051.73
2019-01-30T16:04:58.344Z,98051.08
2019-01-30T16:07:24.546Z,98048.92
2019-01-30T16:09:50.719Z,98057.77
2019-01-30T16:12:16.888Z,98056.81
2019-01-30T16:14:43.082Z,98048.80
2019-01-30T16:17:09.243Z,98058.67
2019-01-30T16:19:35.670Z,98061.56
2019-01-30T16:22:01.871Z,98068.31
2019-01-30T16:24:28.139Z,98067.03
2019-01-30T16:26:54.301Z,98057.95
2019-01-30T16:29:20.519Z,98066.70
2019-01-30T16:31:46.786Z,98066.61
2019-01-30T16:34:14.298Z,98069.43
2019-01-30T16:36:40.500Z,98072.05
2019-01-30T16:39:08.116Z,98067.27
2019-01-30T16:41:34.282Z,98074.05
2019-01-30T16:44:00.489Z,98075.52
2019-01-30T16:46:26.765Z,98076.27
2019-01-30T16:48:57.381Z,98084.61
2019-01-30T16:51:30.207Z,98086.83
2019-01-30T16:53:56.360Z,98091.38
2019-01-30T16:56:22.630Z,98084.50
2019-01-30T16:58:48.922Z,98084.58
2019-01-30T17:01:15.196Z,98085.67
2019-01-30T17:03:41.456Z,98084.22
2019-01-30T17:06:07.936Z,98079.55
2019-01-30T17:08:34.472Z,98087.02
2019-01-30T17:11:00.766Z,98086.78
2019-01-30T17:13:26.958Z,98083.05
2019-01-30T17:15:53.117Z,98089.27
2019-01-30T17:18:19.388Z,98090.41
2019-01-30T17:20:45.682Z,98090.58
2019-01-30T17:23:11.847Z,98088.91
2019-01-30T17:25:38.661Z,98093.06
2019-01-30T17:28:04.849Z,98097.06
2019-01-30T17:30:37.248Z,98101.88
2019-01-30T17:33:03.706Z,98100.64
2019-01-30T17:35:29.914Z,98095.13
2019-01-30T17:37:56.084Z,98095.42
2019-01-30T17:40:24.162Z,98101.89
2019-01-30T17:42:50.362Z,98108.06
2019-01-30T17:45:16.628Z,98111.45
2019-01-30T17:47:43.193Z,98105.59
2019-01-30T17:50:15.640Z,98109.25
2019-01-30T17:52:41.807Z,98107.19
2019-01-30T17:55:08.184Z,98114.12
2019-01-30T17:57:34.463Z,98105.13
2019-01-30T18:00:00.734Z,98112.81
2019-01-30T18:02:27.731Z,98114.55
2019-01-30T18:04:53.933Z,98111.40
2019-01-30T18:07:20.110Z,98110.30
2019-01-30T18:09:46.295Z,98113.94
2019-01-30T18:12:12.756Z,98116.72
2019-01-30T18:14:38.928Z,98114.48
2019-01-30T18:17:05.121Z,98111.13
2019-01-30T18:19:31.425Z,98113.58
2019-01-30T18:21:57.686Z,98112.02
2019-01-30T18:24:23.853Z,98108.29
2019-01-30T18:26:50.052Z,98113.33
2019-01-30T18:29:16.236Z,98111.58
2019-01-30T18:31:42.404Z,98124.56
2019-01-30T18:34:08.842Z,98138.03
2019-01-30T18:36:41.045Z,98136.41
2019-01-30T18:39:07.272Z,98136.38
2019-01-30T18:41:33.573Z,98135.18
2019-01-30T18:43:59.726Z,98143.41
2019-01-30T18:46:25.991Z,98144.39
2019-01-30T18:48:52.170Z,98148.41
2019-01-30T18:51:18.329Z,98155.50
2019-01-30T18:53:44.501Z,98162.13
2019-01-30T18:56:10.713Z,98165.65
2019-01-30T18:58:36.868Z,98172.34
2019-01-30T19:01:03.428Z,98183.38
2019-01-30T19:03:29.690Z,98180.71
2019-01-30T19:05:55.858Z,98176.16
2019-01-30T19:08:22.016Z,98174.91
2019-01-30T19:10:48.477Z,98173.95
2019-01-30T19:13:14.655Z,98169.71
2019-01-30T19:15:40.810Z,98166.71
2019-01-30T19:18:07.098Z,98167.86
2019-01-30T19:20:39.354Z,98171.31
2019-01-30T19:23:07.018Z,98169.13
2019-01-30T19:25:33.401Z,98168.34
2019-01-30T19:27:59.552Z,98169.89
2019-01-30T19:30:28.620Z,98172.00
2019-01-30T19:32:54.908Z,98164.90
2019-01-30T19:35:21.272Z,98166.16
2019-01-30T19:37:47.428Z,98175.36
2019-01-30T19:40:14.729Z,98171.43
2019-01-30T19:42:40.896Z,98163.34
2019-01-30T19:45:10.564Z,98174.91
2019-01-30T19:47:36.747Z,98173.80
2019-01-30T19:50:06.634Z,98164.84
2019-01-30T19:52:32.796Z,98168.39
2019-01-30T19:54:59.032Z,98167.44
2019-01-30T19:57:25.357Z,98163.84
2019-01-30T19:59:51.519Z,98169.31
2019-01-30T20:02:17.735Z,98168.92
2019-01-30T20:04:44.018Z,98161.41
2019-01-30T20:07:14.744Z,98164.02
2019-01-30T20:09:38.698Z,98168.88
2019-01-30T20:12:04.952Z,98171.88
2019-01-30T20:14:31.105Z,98158.27
2019-01-30T20:16:57.303Z,98171.03
2019-01-30T20:19:23.464Z,98170.55
2019-01-30T20:21:49.939Z,98169.08
2019-01-30T20:24:16.140Z,98170.84
2019-01-30T20:26:42.399Z,98173.68
2019-01-30T20:29:08.562Z,98167.00
2019-01-30T20:31:34.863Z,98164.95
2019-01-30T20:34:09.917Z,98172.06
2019-01-30T20:36:29.222Z,98170.20
2019-01-30T20:38:55.482Z,98165.47
2019-01-30T20:41:21.644Z,98170.94
2019-01-30T20:43:47.795Z,98171.98
2019-01-30T20:46:14.000Z,98172.55
2019-01-30T20:48:47.187Z,98169.27
2019-01-30T20:51:08.440Z,98179.73
2019-01-30T20:53:34.622Z,98177.45
2019-01-30T20:56:00.776Z,98171.91
2019-01-30T20:58:27.242Z,98179.59
2019-01-30T21:00:53.441Z,98180.63
2019-01-30T21:03:19.593Z,98183.91
2019-01-30T21:05:45.905Z,98183.93
2019-01-30T21:08:12.200Z,98180.82
2019-01-30T21:10:39.062Z,98187.55
2019-01-30T21:13:05.632Z,98190.25
2019-01-30T21:15:31.820Z,98194.00
2019-01-30T21:17:57.989Z,98188.22
2019-01-30T21:20:24.251Z,98183.28
2019-01-30T21:22:50.438Z,98178.73
2019-01-30T21:25:20.741Z,98183.39
2019-01-30T21:27:47.603Z,98194.31
2019-01-30T21:30:26.397Z,98194.56
2019-01-30T21:32:52.556Z,98190.27
2019-01-30T21:35:19.559Z,98201.24
2019-01-30T21:37:48.938Z,98202.92
2019-01-30T21:40:16.223Z,98207.12
2019-01-30T21:42:42.705Z,98202.32
2019-01-30T21:45:15.000Z,98204.59
2019-01-30T21:47:41.161Z,98202.67
2019-01-30T21:50:08.612Z,98204.44
2019-01-30T21:52:34.903Z,98199.80
2019-01-30T21:55:01.072Z,98213.75
2019-01-30T21:57:27.213Z,98212.95
2019-01-30T21:59:53.400Z,98225.50
2019-01-30T22:02:19.555Z,98217.94
2019-01-30T22:04:45.711Z,98216.16
2019-01-30T22:07:11.951Z,98201.83
2019-01-30T22:09:38.095Z,98210.80
2019-01-30T22:12:04.359Z,98217.70
2019-01-30T22:14:30.549Z,98212.34
2019-01-30T22:16:56.713Z,98219.77
2019-01-30T22:19:22.868Z,98221.20
2019-01-30T22:21:49.359Z,98221.36
2019-01-30T22:24:15.517Z,98222.78
2019-01-30T22:26:41.688Z,98216.30
2019-01-30T22:29:07.873Z,98214.88
2019-01-30T22:31:34.136Z,98220.02
2019-01-30T22:34:00.302Z,98222.97
2019-01-30T22:36:26.483Z,98214.70
2019-01-30T22:38:52.631Z,98222.55
2019-01-30T22:41:18.779Z,98218.98
2019-01-30T22:43:44.972Z,98213.97
2019-01-30T22:46:11.128Z,98218.97
2019-01-30T22:48:37.289Z,98204.70
2019-01-30T22:51:03.480Z,98206.09
2019-01-30T22:53:29.642Z,98205.22
2019-01-30T22:55:55.801Z,98193.70
2019-01-30T22:58:21.991Z,98191.70
2019-01-30T23:00:59.634Z,98198.23
2019-01-30T23:03:38.728Z,98198.23
2019-01-30T23:06:28.082Z,98205.34
2019-01-30T23:09:31.464Z,98208.55
2019-01-30T23:12:13.314Z,98203.39
2019-01-30T23:14:43.108Z,98204.77
2019-01-30T23:17:19.121Z,98198.80
2019-01-30T23:19:48.921Z,98195.20
2019-01-30T23:22:24.472Z,98196.29
2019-01-30T23:25:06.044Z,98197.06
2019-01-30T23:27:38.560Z,98195.02
2019-01-30T23:30:31.278Z,98205.26
2019-01-30T23:33:18.631Z,98203.30
2019-01-30T23:35:54.260Z,98204.42
2019-01-30T23:38:46.690Z,98207.60
2019-01-30T23:41:31.277Z,98204.20
2019-01-30T23:44:06.962Z,98195.05
2019-01-30T23:46:56.635Z,98207.41
2019-01-30T23:49:32.383Z,98200.09
2019-01-30T23:52:17.470Z,98211.23
2019-01-30T23:55:05.144Z,98215.83
2019-01-30T23:57:41.144Z,98213.07
